createdAt,value
2022-12-06T00:02:14.046Z,6.73
2022-12-06T00:04:41.068Z,4.28
2022-12-06T00:07:07.955Z,4.88
2022-12-06T00:09:35.074Z,3.53
2022-12-06T00:12:01.889Z,4.57
2022-12-06T00:14:28.862Z,7.40
2022-12-06T00:16:56.405Z,8.13
2022-12-06T00:19:24.321Z,5.03
2022-12-06T00:21:51.764Z,4.22
2022-12-06T00:24:21.134Z,7.15
2022-12-06T00:26:49.676Z,6.67
2022-12-06T00:29:20.382Z,7.13
2022-12-06T00:31:47.895Z,7.60
2022-12-06T00:34:14.897Z,5.35
2022-12-06T00:36:43.075Z,7.10
2022-12-06T00:39:15.453Z,5.03
2022-12-06T00:41:43.212Z,5.80
2022-12-06T00:44:10.776Z,5.05
2022-12-06T00:46:38.369Z,4.57
2022-12-06T00:49:06.733Z,4.20
2022-12-06T00:51:34.832Z,3.30
2022-12-06T00:54:02.385Z,4.28
2022-12-06T00:56:29.285Z,3.95
2022-12-06T00:58:56.242Z,4.25
2022-12-06T01:01:26.075Z,2.63
2022-12-06T01:03:56.408Z,2.93
2022-12-06T01:06:28.084Z,4.10
2022-12-06T01:09:00.716Z,2.97
2022-12-06T01:11:28.573Z,3.75
2022-12-06T01:13:55.743Z,2.92
2022-12-06T01:16:28.817Z,2.90
2022-12-06T01:18:59.321Z,2.58
2022-12-06T01:21:27.506Z,2.75
2022-12-06T01:23:54.492Z,3.97
2022-12-06T01:26:30.553Z,2.42
2022-12-06T01:28:59.047Z,2.50
2022-12-06T01:31:27.237Z,2.47
2022-12-06T01:33:56.313Z,5.38
2022-12-06T01:36:25.180Z,2.60
2022-12-06T01:38:57.416Z,3.80
2022-12-06T01:41:26.273Z,3.47
2022-12-06T01:43:56.367Z,3.03
2022-12-06T01:46:39.956Z,3.40
2022-12-06T01:49:12.601Z,1.98
2022-12-06T01:51:51.156Z,2.90
2022-12-06T01:54:20.730Z,2.77
2022-12-06T01:56:48.827Z,1.75
2022-12-06T01:59:16.482Z,2.28
2022-12-06T02:01:43.544Z,2.60
2022-12-06T02:04:10.502Z,3.25
2022-12-06T02:06:38.953Z,2.50
2022-12-06T02:09:08.944Z,1.60
2022-12-06T02:11:36.035Z,2.17
2022-12-06T02:14:10.525Z,2.03
2022-12-06T02:16:49.131Z,4.05
2022-12-06T02:19:33.241Z,2.53
2022-12-06T02:22:18.080Z,2.15
2022-12-06T02:25:18.784Z,2.42
2022-12-06T02:27:48.208Z,3.15
2022-12-06T02:30:32.554Z,2.63
2022-12-06T02:33:06.477Z,2.90
2022-12-06T02:35:44.120Z,2.83
2022-12-06T02:38:44.240Z,3.08
2022-12-06T02:41:20.520Z,2.33
2022-12-06T02:43:57.040Z,2.75
2022-12-06T02:46:29.795Z,2.47
2022-12-06T02:49:00.421Z,2.53
2022-12-06T02:51:29.340Z,3.17
2022-12-06T02:53:58.810Z,2.22
2022-12-06T02:56:26.308Z,2.40
2022-12-06T02:58:53.402Z,2.30
2022-12-06T03:01:42.991Z,2.72
2022-12-06T03:04:34.939Z,2.35
2022-12-06T03:07:36.329Z,2.75
2022-12-06T03:10:40.347Z,1.80
2022-12-06T03:13:15.952Z,3.07
2022-12-06T03:15:42.680Z,1.90
2022-12-06T03:18:15.408Z,2.25
2022-12-06T03:20:52.151Z,2.50
2022-12-06T03:23:25.970Z,4.30
2022-12-06T03:25:58.681Z,2.27
2022-12-06T03:28:27.286Z,4.35
2022-12-06T03:30:59.936Z,2.95
2022-12-06T03:33:29.844Z,2.88
2022-12-06T03:35:58.367Z,2.45
2022-12-06T03:38:35.511Z,4.00
2022-12-06T03:41:06.146Z,2.53
2022-12-06T03:43:34.031Z,3.83
2022-12-06T03:46:13.867Z,4.43
2022-12-06T03:48:49.048Z,5.32
2022-12-06T03:51:20.838Z,3.50
2022-12-06T03:53:50.724Z,3.67
2022-12-06T03:56:18.033Z,2.88
2022-12-06T03:58:45.706Z,2.95
2022-12-06T04:01:13.913Z,2.88
2022-12-06T04:03:40.692Z,4.53
2022-12-06T04:06:08.723Z,2.38
2022-12-06T04:08:35.985Z,2.45
2022-12-06T04:11:02.708Z,2.40
2022-12-06T04:13:31.242Z,4.55
2022-12-06T04:16:00.173Z,2.67
2022-12-06T04:18:27.417Z,2.95
2022-12-06T04:21:17.856Z,3.92
2022-12-06T04:23:50.803Z,3.28
2022-12-06T04:26:20.992Z,3.38
2022-12-06T04:29:06.884Z,2.20
2022-12-06T04:31:52.322Z,3.67
2022-12-06T04:34:37.904Z,2.50
2022-12-06T04:37:23.317Z,2.55
2022-12-06T04:39:50.313Z,2.63
2022-12-06T04:42:36.073Z,3.13
2022-12-06T04:45:03.743Z,4.38
2022-12-06T04:47:30.569Z,3.67
2022-12-06T04:49:57.440Z,4.95
2022-12-06T04:52:24.244Z,2.85
2022-12-06T04:54:53.284Z,2.70
2022-12-06T04:57:20.089Z,2.90
2022-12-06T04:59:46.822Z,1.65
2022-12-06T05:02:15.700Z,3.55
2022-12-06T05:04:42.638Z,2.70
2022-12-06T05:07:11.430Z,3.83
2022-12-06T05:09:38.695Z,3.13
2022-12-06T05:12:08.439Z,2.70
2022-12-06T05:14:35.173Z,2.10
2022-12-06T05:17:01.812Z,4.13
2022-12-06T05:19:28.929Z,1.87
2022-12-06T05:21:55.559Z,2.67
2022-12-06T05:24:22.265Z,2.30
2022-12-06T05:26:48.930Z,2.83
2022-12-06T05:29:15.644Z,5.70
2022-12-06T05:31:42.498Z,7.07
2022-12-06T05:34:10.133Z,5.40
2022-12-06T05:36:36.769Z,7.05
2022-12-06T05:39:04.205Z,4.68
2022-12-06T05:41:30.999Z,16.90
2022-12-06T05:43:57.687Z,21.27
2022-12-06T05:46:24.395Z,16.02
2022-12-06T05:48:51.084Z,13.68
2022-12-06T05:51:17.707Z,11.77
2022-12-06T05:53:44.353Z,7.65
2022-12-06T05:56:12.592Z,10.63
2022-12-06T05:58:40.052Z,7.55
2022-12-06T06:01:07.847Z,8.32
2022-12-06T06:03:34.847Z,5.45
2022-12-06T06:06:02.144Z,4.50
2022-12-06T06:08:29.998Z,4.73
2022-12-06T06:10:57.821Z,4.97
2022-12-06T06:13:24.604Z,5.72
2022-12-06T06:15:51.577Z,4.38
2022-12-06T06:18:19.276Z,4.00
2022-12-06T06:20:54.636Z,3.67
2022-12-06T06:23:21.714Z,6.60
2022-12-06T06:25:48.988Z,7.15
2022-12-06T06:28:16.403Z,6.18
2022-12-06T06:30:43.699Z,5.28
2022-12-06T06:33:11.193Z,12.60
2022-12-06T06:35:39.329Z,8.82
2022-12-06T06:38:06.554Z,7.30
2022-12-06T06:40:34.105Z,7.30
2022-12-06T06:43:18.572Z,9.20
2022-12-06T06:45:58.032Z,13.47
2022-12-06T06:48:26.310Z,14.57
2022-12-06T06:50:57.364Z,10.20
2022-12-06T06:53:27.608Z,10.48
2022-12-06T06:55:55.446Z,10.90
2022-12-06T06:58:22.665Z,10.20
2022-12-06T07:00:54.333Z,12.25
2022-12-06T07:03:21.746Z,10.18
2022-12-06T07:06:09.340Z,22.98
2022-12-06T07:08:37.219Z,22.65
2022-12-06T07:11:04.431Z,9.53
2022-12-06T07:13:32.162Z,7.78
2022-12-06T07:15:59.123Z,10.10
2022-12-06T07:18:26.427Z,12.43
2022-12-06T07:21:01.811Z,14.73
2022-12-06T07:23:28.485Z,15.43
2022-12-06T07:26:04.308Z,13.95
2022-12-06T07:28:31.034Z,13.38
2022-12-06T07:30:57.960Z,13.90
2022-12-06T07:33:24.655Z,14.15
2022-12-06T07:38:40.243Z,13.63
2022-12-06T07:41:28.489Z,21.45
2022-12-06T07:44:14.876Z,13.75
2022-12-06T07:46:42.640Z,8.93
2022-12-06T07:49:10.106Z,14.20
2022-12-06T07:51:37.597Z,12.60
2022-12-06T07:54:04.416Z,12.77
2022-12-06T07:56:31.128Z,13.35
2022-12-06T07:58:57.809Z,15.63
2022-12-06T08:01:24.665Z,20.10
2022-12-06T08:03:51.416Z,19.63
2022-12-06T08:06:18.197Z,19.92
2022-12-06T08:08:44.816Z,31.65
2022-12-06T08:11:11.486Z,31.63
2022-12-06T08:13:38.427Z,27.57
2022-12-06T08:16:07.026Z,28.98
2022-12-06T08:18:33.804Z,12.48
2022-12-06T08:21:01.285Z,9.00
2022-12-06T08:23:33.650Z,7.60
2022-12-06T08:26:06.038Z,11.73
2022-12-06T08:28:34.560Z,8.23
2022-12-06T08:31:06.767Z,92.43
2022-12-06T08:33:34.243Z,41.95
2022-12-06T08:36:00.990Z,26.08
2022-12-06T08:38:28.489Z,31.97
2022-12-06T08:40:55.124Z,24.50
2022-12-06T08:43:21.783Z,20.95
2022-12-06T08:45:52.638Z,21.65
2022-12-06T08:48:19.537Z,18.02
2022-12-06T08:50:46.205Z,18.70
2022-12-06T08:53:12.915Z,18.40
2022-12-06T08:55:41.529Z,15.05
2022-12-06T08:58:08.482Z,15.63
2022-12-06T09:00:35.166Z,16.92
2022-12-06T09:03:01.973Z,14.10
2022-12-06T09:05:28.661Z,16.30
2022-12-06T09:07:55.411Z,14.40
2022-12-06T09:10:22.145Z,13.15
2022-12-06T09:12:48.789Z,14.13
2022-12-06T09:15:15.513Z,16.20
2022-12-06T09:17:42.136Z,17.83
2022-12-06T09:20:09.403Z,17.85
2022-12-06T09:22:36.400Z,22.13
2022-12-06T09:25:03.351Z,30.85
2022-12-06T09:27:30.512Z,19.67
2022-12-06T09:29:57.325Z,24.05
2022-12-06T09:32:24.146Z,28.90
2022-12-06T09:34:51.565Z,29.30
2022-12-06T09:37:18.583Z,32.45
2022-12-06T09:39:51.105Z,29.83
2022-12-06T09:42:26.635Z,27.25
2022-12-06T09:45:30.814Z,33.38
2022-12-06T09:48:08.665Z,29.40
2022-12-06T09:51:00.127Z,32.42
2022-12-06T09:54:17.496Z,40.70
2022-12-06T09:57:07.341Z,24.95
2022-12-06T10:00:07.445Z,19.67
2022-12-06T10:03:04.610Z,19.48
2022-12-06T10:05:54.359Z,14.57
2022-12-06T10:08:29.779Z,22.47
2022-12-06T10:11:26.473Z,20.15
2022-12-06T10:14:32.129Z,26.65
2022-12-06T10:17:18.375Z,23.27
2022-12-06T10:20:04.707Z,23.15
2022-12-06T10:22:53.256Z,19.03
2022-12-06T10:25:31.573Z,18.88
2022-12-06T10:28:45.031Z,19.50
2022-12-06T10:31:24.838Z,19.92
2022-12-06T10:33:57.378Z,22.52
2022-12-06T10:36:38.837Z,26.10
2022-12-06T10:39:22.838Z,28.42
2022-12-06T10:42:31.346Z,30.58
2022-12-06T10:45:34.308Z,32.60
2022-12-06T10:48:05.159Z,26.75
2022-12-06T10:50:35.914Z,28.30
2022-12-06T10:53:19.959Z,25.88
2022-12-06T10:55:53.226Z,23.23
2022-12-06T10:58:35.875Z,27.17
2022-12-06T11:01:12.393Z,25.42
2022-12-06T11:03:44.640Z,30.17
2022-12-06T11:06:26.895Z,33.20
2022-12-06T11:08:58.187Z,89.25
2022-12-06T11:11:31.453Z,78.25
2022-12-06T11:14:06.925Z,81.07
2022-12-06T11:16:39.819Z,69.93
2022-12-06T11:19:23.243Z,62.40
2022-12-06T11:22:00.570Z,34.05
2022-12-06T11:24:46.152Z,35.28
2022-12-06T11:27:21.713Z,44.08
2022-12-06T11:29:50.305Z,30.97
2022-12-06T11:32:18.238Z,34.08
2022-12-06T11:34:51.798Z,33.67
2022-12-06T11:37:21.404Z,33.40
2022-12-06T11:39:53.838Z,27.85
2022-12-06T11:42:26.937Z,28.43
2022-12-06T11:44:57.279Z,33.15
2022-12-06T11:47:24.654Z,29.00
2022-12-06T11:49:54.280Z,24.95
2022-12-06T11:52:40.917Z,25.92
2022-12-06T11:55:15.945Z,21.13
2022-12-06T11:57:51.767Z,18.35
2022-12-06T12:00:21.930Z,22.30
2022-12-06T12:02:51.126Z,24.85
2022-12-06T12:05:22.144Z,23.65
2022-12-06T12:07:55.323Z,19.63
2022-12-06T12:10:38.919Z,18.60
2022-12-06T12:13:30.241Z,25.67
2022-12-06T12:16:44.791Z,21.05
2022-12-06T12:19:39.117Z,20.02
2022-12-06T12:22:21.174Z,17.53
2022-12-06T12:25:17.759Z,20.80
2022-12-06T12:27:41.085Z,23.80
2022-12-06T12:30:29.648Z,18.88
2022-12-06T12:33:05.474Z,18.40
2022-12-06T12:35:35.204Z,16.20
2022-12-06T12:38:18.220Z,15.40
2022-12-06T12:40:58.429Z,15.32
2022-12-06T12:43:34.344Z,32.95
2022-12-06T12:46:28.955Z,38.90
2022-12-06T12:49:23.253Z,30.73
2022-12-06T12:51:50.513Z,29.88
2022-12-06T12:54:19.980Z,24.35
2022-12-06T12:56:46.634Z,23.38
2022-12-06T12:59:16.362Z,21.42
2022-12-06T13:02:23.079Z,21.63
2022-12-06T13:05:24.869Z,21.48
2022-12-06T13:07:52.434Z,20.70
2022-12-06T13:10:22.704Z,23.05
2022-12-06T13:12:54.196Z,23.35
2022-12-06T13:15:37.842Z,20.03
2022-12-06T13:18:13.135Z,68.55
2022-12-06T13:20:40.893Z,58.08
2022-12-06T13:23:19.784Z,28.75
2022-12-06T13:26:03.492Z,38.47
2022-12-06T13:28:37.774Z,27.33
2022-12-06T13:31:11.905Z,31.48
2022-12-06T13:33:45.601Z,27.77
2022-12-06T13:36:15.021Z,15.68
2022-12-06T13:38:43.081Z,15.15
2022-12-06T13:41:15.165Z,13.07
2022-12-06T13:43:44.536Z,12.48
2022-12-06T13:46:14.192Z,13.35
2022-12-06T13:48:57.954Z,8.90
2022-12-06T13:51:30.670Z,10.45
2022-12-06T13:54:06.330Z,7.80
2022-12-06T13:56:33.037Z,4.07
2022-12-06T13:59:02.105Z,3.70
2022-12-06T14:01:40.783Z,3.33
2022-12-06T14:06:56.421Z,5.17
2022-12-06T14:09:26.090Z,4.00
2022-12-06T14:11:54.544Z,6.88
2022-12-06T14:14:24.108Z,5.32
2022-12-06T14:16:53.494Z,4.40
2022-12-06T14:19:32.305Z,4.63
2022-12-06T14:22:00.539Z,3.28
2022-12-06T14:24:34.336Z,2.88
2022-12-06T14:27:05.849Z,3.58
2022-12-06T14:29:33.103Z,3.88
2022-12-06T14:32:00.072Z,2.50
2022-12-06T14:34:29.314Z,1.02
2022-12-06T14:36:57.581Z,1.70
2022-12-06T14:39:27.796Z,1.85
2022-12-06T14:42:16.108Z,3.00
2022-12-06T14:44:58.837Z,23.43
2022-12-06T14:47:29.850Z,16.23
2022-12-06T14:50:19.221Z,4.05
2022-12-06T14:53:03.792Z,7.65
2022-12-06T14:55:33.586Z,5.40
2022-12-06T14:58:03.709Z,6.80
2022-12-06T15:00:47.346Z,11.88
2022-12-06T15:03:14.002Z,23.52
2022-12-06T15:05:49.943Z,26.10
2022-12-06T15:08:28.502Z,18.58
2022-12-06T15:11:37.903Z,19.40
2022-12-06T15:14:22.321Z,27.08
2022-12-06T15:17:19.398Z,27.05
2022-12-06T15:19:50.929Z,28.73
2022-12-06T15:22:24.933Z,24.02
2022-12-06T15:24:55.491Z,22.33
2022-12-06T15:27:23.488Z,26.50
2022-12-06T15:29:50.302Z,31.45
2022-12-06T15:32:18.748Z,29.70
2022-12-06T15:34:45.601Z,31.90
2022-12-06T15:37:38.316Z,37.10
2022-12-06T15:40:02.113Z,35.40
2022-12-06T15:42:29.552Z,35.92
2022-12-06T15:44:56.167Z,34.67
2022-12-06T15:47:23.125Z,39.25
2022-12-06T15:49:52.328Z,38.40
2022-12-06T15:52:23.247Z,40.55
2022-12-06T15:54:50.469Z,31.33
2022-12-06T15:57:17.142Z,31.35
2022-12-06T15:59:43.813Z,30.15
2022-12-06T16:02:18.353Z,33.30
2022-12-06T16:04:48.300Z,32.85
2022-12-06T16:07:19.277Z,35.40
2022-12-06T16:09:47.205Z,34.10
2022-12-06T16:12:13.768Z,37.25
2022-12-06T16:14:40.410Z,34.93
2022-12-06T16:17:07.418Z,41.53
2022-12-06T16:19:52.966Z,45.00
2022-12-06T16:22:39.789Z,40.67
2022-12-06T16:25:06.840Z,41.58
2022-12-06T16:27:33.487Z,40.57
2022-12-06T16:30:00.227Z,36.22
2022-12-06T16:32:27.062Z,38.13
2022-12-06T16:34:54.148Z,37.00
2022-12-06T16:37:20.769Z,31.00
2022-12-06T16:39:47.462Z,32.50
2022-12-06T16:42:14.185Z,30.10
2022-12-06T16:44:50.982Z,35.70
2022-12-06T16:47:18.274Z,38.75
2022-12-06T16:49:46.716Z,25.17
2022-12-06T16:52:14.906Z,34.37
2022-12-06T16:54:42.202Z,37.15
2022-12-06T16:57:11.371Z,38.20
2022-12-06T16:59:39.305Z,32.75
2022-12-06T17:02:28.501Z,32.42
2022-12-06T17:04:56.615Z,42.63
2022-12-06T17:07:23.377Z,29.08
2022-12-06T17:09:50.121Z,20.13
2022-12-06T17:12:17.017Z,16.65
2022-12-06T17:14:44.055Z,11.52
2022-12-06T17:17:15.786Z,13.07
2022-12-06T17:19:44.436Z,11.35
2022-12-06T17:22:12.128Z,11.70
2022-12-06T17:24:39.013Z,25.65
2022-12-06T17:27:07.002Z,24.65
2022-12-06T17:29:34.279Z,28.33
2022-12-06T17:32:01.404Z,26.77
2022-12-06T17:34:28.230Z,27.65
2022-12-06T17:36:56.040Z,29.13
2022-12-06T17:39:22.977Z,30.83
2022-12-06T17:42:08.385Z,31.67
2022-12-06T17:44:40.851Z,55.33
2022-12-06T17:47:07.632Z,34.97
2022-12-06T17:49:36.097Z,35.00
2022-12-06T17:52:03.159Z,15.13
2022-12-06T17:54:29.998Z,16.17
2022-12-06T17:56:57.045Z,12.82
2022-12-06T17:59:26.530Z,9.52
2022-12-06T18:04:41.485Z,6.57
2022-12-06T18:07:08.148Z,4.20
2022-12-06T18:09:34.816Z,5.97
2022-12-06T18:12:02.045Z,3.05
2022-12-06T18:14:29.304Z,2.70
2022-12-06T18:16:56.262Z,3.58
2022-12-06T18:19:23.909Z,3.17
2022-12-06T18:21:53.021Z,3.42
2022-12-06T18:24:23.250Z,4.75
2022-12-06T18:26:52.452Z,3.88
2022-12-06T18:29:21.928Z,6.90
2022-12-06T18:31:50.015Z,5.33
2022-12-06T18:34:17.378Z,2.88
2022-12-06T18:36:48.241Z,5.10
2022-12-06T18:39:17.188Z,3.88
2022-12-06T18:41:44.985Z,5.00
2022-12-06T18:44:12.807Z,6.00
2022-12-06T18:46:42.308Z,4.40
2022-12-06T18:49:11.871Z,7.55
2022-12-06T18:51:40.218Z,5.38
2022-12-06T18:54:08.262Z,7.53
2022-12-06T18:56:36.124Z,7.87
2022-12-06T18:59:07.096Z,7.85
2022-12-06T19:01:37.133Z,7.93
2022-12-06T19:04:06.428Z,8.02
2022-12-06T19:06:35.832Z,7.53
2022-12-06T19:09:06.782Z,9.23
2022-12-06T19:11:36.924Z,8.85
2022-12-06T19:14:04.607Z,7.03
2022-12-06T19:16:43.938Z,7.10
2022-12-06T19:19:16.784Z,4.82
2022-12-06T19:21:46.636Z,4.47
2022-12-06T19:24:20.228Z,6.07
2022-12-06T19:26:47.442Z,3.65
2022-12-06T19:29:15.517Z,2.78
2022-12-06T19:31:43.177Z,3.00
2022-12-06T19:34:35.966Z,2.93
2022-12-06T19:37:02.974Z,2.60
2022-12-06T19:39:29.810Z,6.10
2022-12-06T19:42:15.311Z,6.38
2022-12-06T19:44:42.343Z,3.30
2022-12-06T19:47:09.106Z,4.93
2022-12-06T19:49:38.995Z,3.88
2022-12-06T19:52:05.975Z,4.95
2022-12-06T19:54:33.759Z,4.15
2022-12-06T19:57:01.329Z,2.60
2022-12-06T19:59:34.669Z,3.03
2022-12-06T20:02:02.994Z,3.53
2022-12-06T20:04:33.456Z,3.67
2022-12-06T20:07:00.544Z,3.80
2022-12-06T20:09:29.164Z,11.15
2022-12-06T20:15:33.631Z,3.20
2022-12-06T20:18:00.906Z,12.77
2022-12-06T20:20:29.518Z,8.55
2022-12-06T20:22:56.375Z,9.70
2022-12-06T20:25:23.203Z,10.60
2022-12-06T20:27:53.286Z,6.80
2022-12-06T20:30:23.756Z,9.95
2022-12-06T20:32:50.722Z,8.63
2022-12-06T20:35:17.585Z,10.30
2022-12-06T20:37:44.357Z,12.47
2022-12-06T20:40:11.728Z,10.93
2022-12-06T20:42:38.568Z,4.32
2022-12-06T20:45:05.514Z,5.10
2022-12-06T20:47:32.230Z,4.40
2022-12-06T20:49:59.351Z,3.43
2022-12-06T20:52:26.421Z,3.30
2022-12-06T20:54:53.111Z,2.00
2022-12-06T20:57:20.032Z,1.42
2022-12-06T20:59:46.791Z,2.35
2022-12-06T21:02:13.568Z,2.13
2022-12-06T21:04:40.534Z,2.30
2022-12-06T21:07:07.272Z,5.28
2022-12-06T21:09:33.944Z,9.50
2022-12-06T21:12:00.649Z,4.35
2022-12-06T21:14:27.275Z,31.93
2022-12-06T21:16:53.906Z,47.78
2022-12-06T21:19:20.570Z,14.63
2022-12-06T21:21:53.609Z,2.53
2022-12-06T21:24:24.324Z,6.85
2022-12-06T21:26:51.174Z,3.27
2022-12-06T21:29:30.076Z,5.28
2022-12-06T21:31:59.834Z,5.10
2022-12-06T21:34:26.449Z,3.83
2022-12-06T21:36:53.466Z,5.57
2022-12-06T21:39:20.114Z,3.50
2022-12-06T21:41:46.817Z,5.82
2022-12-06T21:44:13.456Z,6.13
2022-12-06T21:46:40.158Z,3.70
2022-12-06T21:49:06.877Z,4.28
2022-12-06T21:51:33.748Z,3.70
2022-12-06T21:54:00.523Z,4.18
2022-12-06T21:56:30.416Z,2.17
2022-12-06T21:58:59.943Z,1.90
2022-12-06T22:01:29.048Z,2.60
2022-12-06T22:03:58.112Z,1.57
2022-12-06T22:06:25.524Z,1.55
2022-12-06T22:09:00.889Z,1.30
2022-12-06T22:11:28.826Z,1.40
2022-12-06T22:13:58.360Z,2.38
2022-12-06T22:16:25.566Z,0.83
2022-12-06T22:18:55.001Z,1.30
2022-12-06T22:21:24.896Z,1.80
2022-12-06T22:23:53.919Z,1.58
2022-12-06T22:26:22.520Z,1.92
2022-12-06T22:28:49.528Z,2.37
2022-12-06T22:31:24.336Z,1.35
2022-12-06T22:33:52.301Z,1.77
2022-12-06T22:36:20.740Z,1.92
2022-12-06T22:38:52.436Z,4.03
2022-12-06T22:41:19.968Z,5.90
2022-12-06T22:43:50.393Z,4.90
2022-12-06T22:46:17.246Z,3.08
2022-12-06T22:48:44.287Z,2.75
2022-12-06T22:51:25.742Z,2.60
2022-12-06T22:53:57.385Z,1.30
2022-12-06T22:56:25.302Z,1.10
2022-12-06T22:58:56.579Z,1.85
2022-12-06T23:01:25.846Z,1.63
2022-12-06T23:03:53.794Z,1.42
2022-12-06T23:06:23.662Z,2.83
2022-12-06T23:08:50.869Z,4.28
2022-12-06T23:11:26.060Z,10.50
2022-12-06T23:13:53.694Z,17.80
2022-12-06T23:16:22.991Z,5.18
2022-12-06T23:18:50.275Z,5.17
2022-12-06T23:21:20.225Z,2.80
2022-12-06T23:23:50.786Z,2.00
2022-12-06T23:26:21.066Z,0.80
2022-12-06T23:28:48.470Z,1.00
2022-12-06T23:31:18.721Z,1.00
2022-12-06T23:33:46.621Z,0.95
2022-12-06T23:36:19.580Z,1.50
2022-12-06T23:38:46.544Z,1.30
2022-12-06T23:41:16.574Z,2.33
2022-12-06T23:43:43.460Z,2.37
2022-12-06T23:46:12.429Z,1.75
2022-12-06T23:48:39.512Z,1.70
2022-12-06T23:51:08.950Z,2.05
2022-12-06T23:53:36.161Z,1.15
2022-12-06T23:56:11.521Z,1.33
2022-12-06T23:58:38.891Z,1.52
